Time;durP1;ratioP1;P1;durP2;ratioP2;P2;SDS_P1;SDS_P2;PMS_P1;PMS_P2;Temp;Humidity;BMP_temperature;BMP_pressure;BME280_temperature;BME280_humidity;BME280_pressure;Samples;Min_cycle;Max_cycle;Signal;HPM_P1;HPM_P2
2024/01/16 00:00:51;;;;;;;10.63;9.60;;;4.90;99.90;;;;;;4891290;29;20279;-65
2024/01/16 00:03:17;;;;;;;13.60;8.77;;;5.00;99.90;;;;;;4894265;29;20195;-65
2024/01/16 00:05:43;;;;;;;10.87;9.30;;;5.00;99.90;;;;;;4883819;29;20238;-65
2024/01/16 00:08:09;;;;;;;12.70;8.93;;;4.90;99.90;;;;;;4895691;29;20187;-66
2024/01/16 00:10:34;;;;;;;18.10;10.23;;;4.90;99.90;;;;;;4897020;29;20183;-65
2024/01/16 00:13:00;;;;;;;13.10;9.47;;;4.90;99.90;;;;;;4892956;29;20710;-65
2024/01/16 00:15:26;;;;;;;11.90;9.57;;;5.00;99.90;;;;;;4893315;29;20187;-65
2024/01/16 00:17:53;;;;;;;14.07;10.13;;;4.90;99.90;;;;;;4893732;29;20198;-65
2024/01/16 00:20:19;;;;;;;12.93;10.55;;;5.00;99.90;;;;;;4884580;29;20532;-67
2024/01/16 00:22:44;;;;;;;12.20;10.63;;;5.00;99.90;;;;;;4877756;29;20193;-65
2024/01/16 00:25:10;;;;;;;12.90;9.80;;;5.00;99.90;;;;;;4892821;29;20298;-65
2024/01/16 00:27:36;;;;;;;13.73;9.30;;;4.90;99.90;;;;;;4885620;29;20226;-65
2024/01/16 00:30:02;;;;;;;14.23;9.80;;;5.00;99.90;;;;;;4890361;29;20339;-65
2024/01/16 00:32:28;;;;;;;11.03;8.43;;;4.80;99.90;;;;;;4890887;29;20232;-65
2024/01/16 00:34:53;;;;;;;12.93;9.53;;;4.80;99.90;;;;;;4884848;29;20432;-65
2024/01/16 00:37:19;;;;;;;9.87;8.23;;;4.70;99.90;;;;;;4897256;29;20266;-65
2024/01/16 00:39:45;;;;;;;10.77;7.70;;;4.70;99.90;;;;;;4879263;29;20678;-65
2024/01/16 00:42:11;;;;;;;11.83;9.33;;;4.80;99.90;;;;;;4876991;29;20200;-64
2024/01/16 00:44:36;;;;;;;14.60;7.70;;;4.70;99.90;;;;;;4880424;29;20306;-65
2024/01/16 00:47:02;;;;;;;8.70;7.70;;;4.80;99.90;;;;;;4891986;29;20418;-65
2024/01/16 00:49:28;;;;;;;8.60;7.70;;;4.80;99.90;;;;;;4879779;29;20515;-65
2024/01/16 00:51:54;;;;;;;9.57;7.97;;;4.90;99.90;;;;;;4881240;29;20399;-65
2024/01/16 00:54:20;;;;;;;9.73;8.07;;;5.00;99.90;;;;;;4855291;29;20709;-65
2024/01/16 00:56:46;;;;;;;9.32;8.10;;;5.00;99.90;;;;;;4892938;29;20231;-65
2024/01/16 00:59:12;;;;;;;11.13;8.80;;;5.00;99.90;;;;;;4890556;29;20184;-65
2024/01/16 01:01:38;;;;;;;12.77;9.37;;;5.00;99.90;;;;;;4885499;29;20187;-65
2024/01/16 01:04:04;;;;;;;10.70;9.60;;;5.00;99.90;;;;;;4886107;29;20275;-65
2024/01/16 01:06:29;;;;;;;15.17;10.30;;;5.00;99.90;;;;;;4891658;29;20729;-65
2024/01/16 01:08:55;;;;;;;13.57;9.93;;;5.10;99.90;;;;;;4886261;29;20464;-65
2024/01/16 01:11:21;;;;;;;15.37;10.70;;;5.10;99.90;;;;;;4895602;29;20193;-67
2024/01/16 01:13:47;;;;;;;14.13;11.00;;;5.20;99.90;;;;;;4875367;29;20204;-64
2024/01/16 01:16:12;;;;;;;12.93;10.80;;;5.10;99.90;;;;;;4890366;29;20184;-66
2024/01/16 01:18:38;;;;;;;16.07;10.97;;;5.10;99.90;;;;;;4881590;29;20548;-65
2024/01/16 01:21:04;;;;;;;13.77;11.93;;;5.20;99.90;;;;;;4868281;29;20235;-64
2024/01/16 01:23:30;;;;;;;15.47;11.03;;;5.20;99.90;;;;;;4875720;29;20183;-64
2024/01/16 01:25:55;;;;;;;15.33;10.57;;;5.20;99.90;;;;;;4885611;29;20230;-65
2024/01/16 01:28:21;;;;;;;14.10;9.80;;;5.20;99.90;;;;;;4895742;29;20274;-64
2024/01/16 01:30:47;;;;;;;11.40;9.60;;;5.20;99.90;;;;;;4897570;29;20169;-64
2024/01/16 01:33:12;;;;;;;14.87;10.60;;;5.20;99.90;;;;;;4887998;29;20188;-65
2024/01/16 01:35:38;;;;;;;13.20;10.20;;;5.20;99.90;;;;;;4894027;29;20194;-65
2024/01/16 01:38:04;;;;;;;13.30;9.83;;;5.20;99.90;;;;;;4897219;29;20183;-65
2024/01/16 01:40:30;;;;;;;11.13;10.03;;;5.10;99.90;;;;;;4896242;29;20190;-65
2024/01/16 01:42:55;;;;;;;12.80;9.60;;;5.10;99.90;;;;;;4888392;29;20422;-65
2024/01/16 01:45:21;;;;;;;15.70;10.00;;;5.10;99.90;;;;;;4877886;29;20298;-65
2024/01/16 01:47:47;;;;;;;11.80;9.10;;;5.10;99.90;;;;;;4893668;29;20187;-64
2024/01/16 01:50:14;;;;;;;14.32;9.60;;;5.10;99.90;;;;;;4894616;29;20184;-68
2024/01/16 01:52:40;;;;;;;12.77;9.63;;;5.10;99.90;;;;;;4891838;29;20199;-65
2024/01/16 01:55:13;;;;;;;13.43;8.65;;;5.20;99.90;;;;;;4896595;29;20539;-65
2024/01/16 01:57:39;;;;;;;14.48;9.93;;;5.10;99.90;;;;;;4892706;29;20699;-64
2024/01/16 02:00:06;;;;;;;14.55;10.00;;;5.10;99.90;;;;;;4897149;29;20180;-65
2024/01/16 02:02:32;;;;;;;12.70;9.20;;;5.20;99.90;;;;;;4894598;29;20270;-65
2024/01/16 02:04:58;;;;;;;12.45;9.05;;;5.20;99.90;;;;;;4896693;29;20207;-65
2024/01/16 02:07:25;;;;;;;13.73;9.47;;;5.20;99.90;;;;;;4893844;29;20238;-65
2024/01/16 02:09:51;;;;;;;13.63;11.07;;;5.10;99.90;;;;;;4879797;29;20495;-65
2024/01/16 02:12:16;;;;;;;13.70;9.60;;;5.10;99.90;;;;;;4890508;29;20210;-65
2024/01/16 02:14:42;;;;;;;17.90;10.47;;;5.10;99.90;;;;;;4879370;29;20466;-65
2024/01/16 02:17:08;;;;;;;12.30;10.20;;;5.20;99.90;;;;;;4880103;29;20176;-67
2024/01/16 02:19:34;;;;;;;11.67;9.20;;;5.10;99.90;;;;;;4878143;29;20184;-65
2024/01/16 02:22:02;;;;;;;14.17;9.50;;;5.10;99.90;;;;;;4875951;29;20194;-65
2024/01/16 02:24:28;;;;;;;13.57;10.68;;;5.10;99.90;;;;;;4892491;29;20671;-65
2024/01/16 02:26:54;;;;;;;13.60;9.83;;;5.10;99.90;;;;;;4895021;29;20243;-65
2024/01/16 02:29:19;;;;;;;14.53;10.37;;;5.20;99.90;;;;;;4878752;29;20310;-65
2024/01/16 02:31:45;;;;;;;17.17;10.43;;;5.10;99.90;;;;;;4891656;29;20179;-65
2024/01/16 02:34:11;;;;;;;16.37;10.43;;;5.00;99.90;;;;;;4866098;29;20214;-66
2024/01/16 02:36:37;;;;;;;18.87;12.20;;;5.00;99.90;;;;;;4895368;29;20439;-65
2024/01/16 02:39:02;;;;;;;13.70;10.20;;;4.90;99.90;;;;;;4896823;29;20235;-65
2024/01/16 02:41:28;;;;;;;15.00;10.70;;;4.90;99.90;;;;;;4896256;29;20175;-65
2024/01/16 02:43:54;;;;;;;16.60;11.83;;;4.80;99.90;;;;;;4881257;29;20206;-65
2024/01/16 02:46:20;;;;;;;14.50;11.07;;;4.80;99.90;;;;;;4880734;29;20180;-65
2024/01/16 02:48:46;;;;;;;14.53;10.63;;;4.80;99.90;;;;;;4880137;29;20214;-65
2024/01/16 02:51:12;;;;;;;13.55;10.02;;;4.90;99.90;;;;;;4882732;29;20498;-65
2024/01/16 02:53:38;;;;;;;12.07;9.48;;;4.90;99.90;;;;;;4888854;29;20192;-65
2024/01/16 02:56:04;;;;;;;15.60;10.20;;;4.90;99.90;;;;;;4899394;29;20229;-65
2024/01/16 02:58:33;;;;;;;15.88;10.02;;;4.90;99.90;;;;;;4894350;29;20274;-65
2024/01/16 03:00:59;;;;;;;11.52;9.73;;;4.90;99.90;;;;;;4894482;29;20528;-65
2024/01/16 03:03:26;;;;;;;15.23;10.60;;;4.90;99.90;;;;;;4880671;29;20184;-65
2024/01/16 03:05:52;;;;;;;16.48;10.85;;;4.90;99.90;;;;;;4864707;29;20935;-65
2024/01/16 03:08:17;;;;;;;13.40;9.90;;;4.90;99.90;;;;;;4886387;29;20173;-68
2024/01/16 03:10:43;;;;;;;12.03;9.73;;;4.90;99.90;;;;;;4881232;29;20172;-65
2024/01/16 03:13:09;;;;;;;12.77;9.73;;;4.90;99.90;;;;;;4882227;29;20208;-67
2024/01/16 03:15:35;;;;;;;15.13;10.00;;;5.00;99.90;;;;;;4880296;29;20180;-65
2024/01/16 03:18:01;;;;;;;14.37;9.63;;;5.10;99.90;;;;;;4890574;29;20320;-65
2024/01/16 03:20:28;;;;;;;14.80;9.18;;;5.10;99.90;;;;;;4898368;29;20180;-65
2024/01/16 03:22:53;;;;;;;13.25;8.80;;;5.10;99.90;;;;;;4880880;29;20184;-65
2024/01/16 03:25:19;;;;;;;15.47;9.20;;;5.10;99.90;;;;;;4876354;29;20280;-68
2024/01/16 03:27:46;;;;;;;12.02;9.80;;;5.10;99.90;;;;;;4881834;29;20192;-65
2024/01/16 03:30:12;;;;;;;16.58;10.15;;;5.10;99.90;;;;;;4881002;29;20199;-65
2024/01/16 03:32:38;;;;;;;12.90;9.40;;;5.10;99.90;;;;;;4867819;29;20190;-65
2024/01/16 03:35:05;;;;;;;15.38;9.25;;;5.10;99.90;;;;;;4891137;29;20187;-65
2024/01/16 03:37:32;;;;;;;12.93;9.88;;;5.20;99.90;;;;;;4898828;29;20540;-66
2024/01/16 03:39:58;;;;;;;13.63;10.00;;;5.10;99.90;;;;;;4892274;29;20180;-65
2024/01/16 03:42:24;;;;;;;13.17;10.03;;;5.10;99.90;;;;;;4864663;29;20688;-66
2024/01/16 03:44:49;;;;;;;13.32;10.00;;;5.00;99.90;;;;;;4898828;29;20581;-65
2024/01/16 03:47:15;;;;;;;13.60;10.27;;;5.10;99.90;;;;;;4897794;29;20266;-65
2024/01/16 03:49:41;;;;;;;16.20;10.13;;;5.10;99.90;;;;;;4898431;29;20218;-65
2024/01/16 03:52:07;;;;;;;12.63;8.67;;;5.00;99.90;;;;;;4899129;29;20622;-65
2024/01/16 03:54:33;;;;;;;13.57;9.50;;;5.00;99.90;;;;;;4898190;29;20185;-66
2024/01/16 03:56:58;;;;;;;12.47;9.20;;;5.10;99.90;;;;;;4897170;29;20265;-66
2024/01/16 03:59:24;;;;;;;12.70;9.30;;;5.20;99.90;;;;;;4898082;29;20266;-67
2024/01/16 04:01:50;;;;;;;13.87;9.20;;;5.10;99.90;;;;;;4870392;29;20689;-65
2024/01/16 04:04:16;;;;;;;12.53;8.67;;;5.20;99.90;;;;;;4863599;29;20211;-65
2024/01/16 04:06:42;;;;;;;10.43;9.27;;;5.20;99.90;;;;;;4879776;29;20188;-66
2024/01/16 04:09:09;;;;;;;10.38;8.50;;;5.20;99.90;;;;;;4880132;29;20471;-66
2024/01/16 04:11:36;;;;;;;11.20;8.47;;;5.30;99.90;;;;;;4862810;29;20180;-67
2024/01/16 04:14:02;;;;;;;12.90;9.98;;;5.20;99.90;;;;;;4899125;29;20382;-65
2024/01/16 04:16:28;;;;;;;12.57;9.32;;;5.20;99.90;;;;;;4897726;29;20190;-65
2024/01/16 04:18:53;;;;;;;12.73;8.53;;;5.20;99.90;;;;;;4896566;29;20253;-66
2024/01/16 04:21:19;;;;;;;10.53;9.00;;;5.20;99.90;;;;;;4898022;29;20436;-68
2024/01/16 04:23:45;;;;;;;11.50;8.80;;;5.20;99.90;;;;;;4889248;29;20183;-67
2024/01/16 04:26:11;;;;;;;13.53;8.97;;;5.20;99.90;;;;;;4882895;29;20928;-66
2024/01/16 04:28:37;;;;;;;10.30;8.53;;;5.30;99.90;;;;;;4897515;29;20459;-65
2024/01/16 04:31:04;;;;;;;10.03;8.13;;;5.30;99.90;;;;;;4897987;29;20435;-66
2024/01/16 04:33:29;;;;;;;10.48;8.48;;;5.30;99.90;;;;;;4883534;29;20191;-65
2024/01/16 04:35:56;;;;;;;10.37;8.70;;;5.40;99.90;;;;;;4881064;29;20188;-67
2024/01/16 04:38:21;;;;;;;10.97;8.87;;;5.50;99.90;;;;;;4879902;29;20176;-69
2024/01/16 04:40:47;;;;;;;16.70;9.50;;;5.50;99.90;;;;;;4879451;29;20503;-66
2024/01/16 04:43:13;;;;;;;12.60;9.40;;;5.40;99.90;;;;;;4882848;29;20398;-66
2024/01/16 04:45:39;;;;;;;15.87;8.70;;;5.40;99.90;;;;;;4879559;29;20664;-65
2024/01/16 04:48:05;;;;;;;14.20;8.47;;;5.40;99.90;;;;;;4879551;29;20177;-65
2024/01/16 04:50:33;;;;;;;11.83;8.77;;;5.30;99.90;;;;;;4878708;29;20650;-65
2024/01/16 04:52:59;;;;;;;12.23;9.68;;;5.40;99.90;;;;;;4879504;29;20427;-64
2024/01/16 04:55:26;;;;;;;10.80;9.35;;;5.30;99.90;;;;;;4878873;29;20188;-66
2024/01/16 04:57:53;;;;;;;10.55;9.00;;;5.20;99.90;;;;;;4884048;29;20236;-64
2024/01/16 05:00:18;;;;;;;14.32;9.00;;;5.20;99.90;;;;;;4878634;29;20704;-65
2024/01/16 05:02:44;;;;;;;12.23;8.97;;;5.20;99.90;;;;;;4861148;29;20255;-65
2024/01/16 05:05:10;;;;;;;13.37;10.70;;;5.20;99.90;;;;;;4861787;29;20229;-65
2024/01/16 05:07:36;;;;;;;13.87;10.87;;;5.20;99.90;;;;;;4861232;29;20209;-65
2024/01/16 05:10:02;;;;;;;12.23;9.40;;;5.30;99.90;;;;;;4878552;29;20184;-65
2024/01/16 05:12:28;;;;;;;15.90;10.20;;;5.30;99.90;;;;;;4893322;29;20202;-65
2024/01/16 05:14:54;;;;;;;14.97;9.97;;;5.30;99.90;;;;;;4897077;29;20180;-65
2024/01/16 05:17:19;;;;;;;14.67;9.83;;;5.20;99.90;;;;;;4894882;29;20249;-66
2024/01/16 05:19:45;;;;;;;15.90;9.83;;;5.10;99.90;;;;;;4879567;29;20183;-65
2024/01/16 05:22:11;;;;;;;14.20;10.90;;;5.10;99.90;;;;;;4892062;29;20188;-65
2024/01/16 05:24:37;;;;;;;12.70;10.23;;;5.10;99.90;;;;;;4888936;29;20206;-65
2024/01/16 05:27:04;;;;;;;14.97;11.07;;;5.20;99.90;;;;;;4889529;29;20187;-65
2024/01/16 05:29:31;;;;;;;14.07;12.52;;;5.10;99.90;;;;;;4895545;29;20417;-66
2024/01/16 05:31:57;;;;;;;17.85;12.38;;;5.20;99.90;;;;;;4881712;29;20271;-66
2024/01/16 05:34:22;;;;;;;19.63;12.05;;;5.20;99.90;;;;;;4880110;29;20266;-65
2024/01/16 05:36:48;;;;;;;12.90;11.60;;;5.20;99.90;;;;;;4890125;29;20267;-65
2024/01/16 05:39:14;;;;;;;14.33;11.13;;;5.20;99.90;;;;;;4896772;29;20171;-65
2024/01/16 05:41:40;;;;;;;12.03;9.90;;;5.30;99.90;;;;;;4895986;29;20514;-66
2024/01/16 05:44:06;;;;;;;13.82;11.93;;;5.20;99.90;;;;;;4873941;29;20698;-65
2024/01/16 05:46:32;;;;;;;14.33;11.00;;;5.10;99.90;;;;;;4878292;29;20188;-66
2024/01/16 05:48:58;;;;;;;11.88;8.93;;;5.10;99.90;;;;;;4877830;29;20629;-65
2024/01/16 05:51:25;;;;;;;13.77;10.13;;;5.10;99.90;;;;;;4877741;29;20179;-65
2024/01/16 05:53:51;;;;;;;14.65;10.60;;;5.10;99.90;;;;;;4877366;29;20320;-65
2024/01/16 05:56:17;;;;;;;16.67;10.97;;;5.20;99.90;;;;;;4844537;29;1141707;-65
2024/01/16 05:58:42;;;;;;;13.50;9.70;;;5.20;99.90;;;;;;4870524;29;20192;-66
2024/01/16 06:01:08;;;;;;;13.37;9.60;;;5.20;99.90;;;;;;4890640;29;20270;-66
2024/01/16 06:03:34;;;;;;;16.90;12.37;;;5.20;99.90;;;;;;4896613;29;20610;-65
2024/01/16 06:05:59;;;;;;;18.87;10.83;;;5.30;99.90;;;;;;4897082;29;20299;-65
2024/01/16 06:08:26;;;;;;;17.40;12.00;;;5.30;99.90;;;;;;4867943;29;20249;-67
2024/01/16 06:10:51;;;;;;;13.75;11.05;;;5.30;99.90;;;;;;4886037;29;20192;-65
2024/01/16 06:13:21;;;;;;;14.90;9.53;;;5.30;99.90;;;;;;4879255;29;20539;-65
2024/01/16 06:15:47;;;;;;;11.27;8.10;;;5.30;99.90;;;;;;4860895;29;20181;-65
2024/01/16 06:18:13;;;;;;;13.87;9.80;;;5.30;99.90;;;;;;4877433;29;20236;-65
2024/01/16 06:20:38;;;;;;;11.60;8.70;;;5.20;99.90;;;;;;4879614;29;20175;-65
2024/01/16 06:23:04;;;;;;;13.00;9.40;;;5.20;99.90;;;;;;4889566;29;20426;-65
2024/01/16 06:25:30;;;;;;;11.10;8.67;;;5.20;99.90;;;;;;4884347;29;20250;-68
2024/01/16 06:27:55;;;;;;;12.80;9.27;;;5.30;99.90;;;;;;4892315;29;20539;-65
2024/01/16 06:30:23;;;;;;;14.20;10.83;;;5.20;99.90;;;;;;4890086;29;20539;-66
2024/01/16 06:32:49;;;;;;;12.80;9.73;;;5.20;99.90;;;;;;4898549;29;20179;-66
2024/01/16 06:35:16;;;;;;;9.43;8.43;;;5.20;99.90;;;;;;4875694;29;20207;-66
2024/01/16 06:37:42;;;;;;;10.63;9.50;;;5.10;99.90;;;;;;4880801;29;20593;-66
2024/01/16 06:40:09;;;;;;;12.45;7.93;;;5.10;99.90;;;;;;4896018;29;20184;-65
2024/01/16 06:42:37;;;;;;;12.90;8.70;;;5.10;99.90;;;;;;4900173;29;20176;-66
2024/01/16 06:45:04;;;;;;;9.85;8.85;;;5.20;99.90;;;;;;4887366;29;20264;-65
2024/01/16 06:47:29;;;;;;;10.10;8.15;;;5.20;99.90;;;;;;4894559;29;20187;-66
2024/01/16 06:49:55;;;;;;;11.17;9.37;;;5.20;99.90;;;;;;4889364;29;20176;-65
2024/01/16 06:52:21;;;;;;;9.47;7.60;;;5.20;99.90;;;;;;4865076;29;20273;-65
2024/01/16 06:54:47;;;;;;;12.77;7.97;;;5.10;99.90;;;;;;4880989;29;20900;-65
2024/01/16 06:57:12;;;;;;;10.03;8.70;;;5.10;99.90;;;;;;4883607;29;20267;-66
2024/01/16 06:59:38;;;;;;;10.87;7.30;;;5.10;99.90;;;;;;4899492;29;20193;-66
2024/01/16 07:02:04;;;;;;;12.00;7.77;;;5.10;99.90;;;;;;4886366;29;20180;-65
2024/01/16 07:04:30;;;;;;;8.63;7.73;;;5.10;99.90;;;;;;4882123;29;20209;-68
2024/01/16 07:06:55;;;;;;;10.07;9.03;;;5.10;99.90;;;;;;4881810;29;20499;-65
2024/01/16 07:09:21;;;;;;;9.27;8.07;;;5.20;99.90;;;;;;4895792;29;20678;-65
2024/01/16 07:11:47;;;;;;;12.57;9.07;;;5.20;99.90;;;;;;4883160;29;20187;-67
2024/01/16 07:14:13;;;;;;;8.00;7.20;;;5.20;99.90;;;;;;4895569;29;20270;-66
2024/01/16 07:16:39;;;;;;;9.80;8.80;;;5.20;99.90;;;;;;4897114;29;20645;-67
2024/01/16 07:19:05;;;;;;;10.90;8.73;;;5.20;99.90;;;;;;4857307;29;20204;-66
2024/01/16 07:21:31;;;;;;;10.80;8.63;;;5.20;99.90;;;;;;4889009;29;20278;-67
2024/01/16 07:23:57;;;;;;;13.03;11.30;;;5.20;99.90;;;;;;4888874;29;20511;-67
2024/01/16 07:26:23;;;;;;;13.57;11.00;;;5.30;99.90;;;;;;4899771;29;20188;-66
2024/01/16 07:28:49;;;;;;;15.15;12.00;;;5.30;99.90;;;;;;4882508;29;20439;-66
2024/01/16 07:31:18;;;;;;;15.07;10.55;;;5.20;99.90;;;;;;4899849;29;20298;-66
2024/01/16 07:33:44;;;;;;;12.95;11.30;;;5.20;99.90;;;;;;4898441;29;20180;-66
2024/01/16 07:36:11;;;;;;;18.03;11.80;;;5.20;99.90;;;;;;4899579;29;20692;-65
2024/01/16 07:38:37;;;;;;;13.23;11.50;;;5.20;99.90;;;;;;4882465;29;20180;-65
2024/01/16 07:41:03;;;;;;;16.60;12.02;;;5.20;99.90;;;;;;4884325;29;20288;-65
2024/01/16 07:43:29;;;;;;;15.27;11.35;;;5.20;99.90;;;;;;4883854;29;20184;-65
2024/01/16 07:45:55;;;;;;;13.90;12.03;;;5.10;99.90;;;;;;4868322;29;20681;-66
2024/01/16 07:48:22;;;;;;;13.68;11.32;;;5.00;99.90;;;;;;4888804;29;20702;-65
2024/01/16 07:50:48;;;;;;;20.23;13.15;;;5.00;99.90;;;;;;4899149;29;20258;-65
2024/01/16 07:53:17;;;;;;;13.52;11.27;;;5.00;99.90;;;;;;4899611;29;20179;-66
2024/01/16 07:55:43;;;;;;;13.45;11.98;;;5.10;99.90;;;;;;4894531;29;20207;-66
2024/01/16 07:58:12;;;;;;;13.07;11.40;;;5.10;99.90;;;;;;4880682;29;20248;-66
2024/01/16 08:00:39;;;;;;;12.95;10.13;;;5.10;99.90;;;;;;4880995;29;20542;-66
2024/01/16 08:03:08;;;;;;;11.60;9.70;;;5.00;99.90;;;;;;4893199;29;20212;-65
2024/01/16 08:05:34;;;;;;;14.77;9.60;;;5.00;99.90;;;;;;4898700;29;20217;-66
2024/01/16 08:08:00;;;;;;;14.87;8.97;;;5.00;99.90;;;;;;4898327;29;20684;-66
2024/01/16 08:10:26;;;;;;;8.73;7.83;;;5.00;99.90;;;;;;4889268;29;20193;-66
2024/01/16 08:12:51;;;;;;;9.20;8.23;;;5.10;99.90;;;;;;4888278;29;20962;-65
2024/01/16 08:15:17;;;;;;;9.20;8.10;;;5.20;99.90;;;;;;4884148;29;20459;-65
2024/01/16 08:17:43;;;;;;;10.20;9.30;;;5.20;99.90;;;;;;4882347;29;20402;-65
2024/01/16 08:20:09;;;;;;;13.70;12.30;;;5.30;99.90;;;;;;4872919;29;20244;-65
2024/01/16 08:22:38;;;;;;;14.10;13.00;;;5.80;99.90;;;;;;4881498;29;20442;-65
2024/01/16 08:25:05;;;;;;;13.80;10.40;;;6.20;99.90;;;;;;4899324;29;20536;-65
2024/01/16 08:27:31;;;;;;;11.23;10.10;;;6.60;99.90;;;;;;4894800;29;20413;-65
2024/01/16 08:29:57;;;;;;;12.87;11.67;;;6.80;99.90;;;;;;4881863;29;20394;-66
2024/01/16 08:32:22;;;;;;;9.97;8.97;;;7.00;99.90;;;;;;4893331;29;21009;-67
2024/01/16 08:34:48;;;;;;;9.43;8.27;;;7.30;99.90;;;;;;4895756;29;20322;-66
2024/01/16 08:37:14;;;;;;;9.63;8.83;;;7.50;99.90;;;;;;4882072;29;20233;-66
2024/01/16 08:39:40;;;;;;;13.37;9.37;;;7.60;99.90;;;;;;4898263;29;20667;-66
2024/01/16 08:42:06;;;;;;;9.50;8.60;;;7.70;99.90;;;;;;4898000;29;20470;-66
2024/01/16 08:44:31;;;;;;;12.97;7.87;;;7.90;99.90;;;;;;4898303;29;20467;-66
2024/01/16 08:47:05;;;;;;;8.43;7.57;;;8.00;99.90;;;;;;4896942;29;20404;-65
2024/01/16 08:49:32;;;;;;;8.10;7.40;;;8.20;99.90;;;;;;4897084;29;20546;-65
2024/01/16 08:51:58;;;;;;;11.07;7.33;;;8.30;99.90;;;;;;4888648;29;20423;-65
2024/01/16 08:54:25;;;;;;;11.30;6.77;;;8.50;99.70;;;;;;4898444;29;20427;-65
2024/01/16 08:56:52;;;;;;;8.10;6.90;;;8.50;99.90;;;;;;4897871;29;20868;-66
2024/01/16 08:59:18;;;;;;;8.57;6.53;;;8.50;99.90;;;;;;4884297;29;20426;-66
2024/01/16 09:01:44;;;;;;;10.40;6.13;;;8.60;98.40;;;;;;4887927;29;20427;-66
2024/01/16 09:04:10;;;;;;;10.43;6.70;;;8.50;98.00;;;;;;4876896;29;20935;-66
2024/01/16 09:06:36;;;;;;;8.87;6.17;;;8.60;97.90;;;;;;4887109;29;20434;-69
2024/01/16 09:09:04;;;;;;;8.87;7.00;;;8.60;98.20;;;;;;4884941;29;20561;-65
2024/01/16 09:11:30;;;;;;;8.93;5.73;;;8.70;96.00;;;;;;4866300;29;20432;-65
2024/01/16 09:13:56;;;;;;;8.30;5.17;;;8.60;94.80;;;;;;4896539;29;20427;-65
2024/01/16 09:16:21;;;;;;;6.73;4.90;;;8.30;93.50;;;;;;4866507;29;20952;-65
2024/01/16 09:18:47;;;;;;;6.60;4.37;;;7.90;93.60;;;;;;4890722;29;20187;-65
2024/01/16 09:21:14;;;;;;;5.73;4.90;;;7.70;93.90;;;;;;4891323;29;20187;-65
2024/01/16 09:23:39;;;;;;;8.00;5.30;;;7.40;94.30;;;;;;4878526;29;20675;-65
2024/01/16 09:26:05;;;;;;;7.77;4.57;;;7.20;95.00;;;;;;4879608;29;20460;-66
2024/01/16 09:28:31;;;;;;;4.50;4.10;;;7.00;95.20;;;;;;4883449;29;20186;-65
2024/01/16 09:30:57;;;;;;;4.60;4.20;;;7.00;95.40;;;;;;4863306;29;20198;-65
2024/01/16 09:33:28;;;;;;;11.73;6.97;;;6.90;95.40;;;;;;4890245;29;20246;-65
2024/01/16 09:35:54;;;;;;;7.00;4.87;;;6.70;95.80;;;;;;4897316;29;20176;-65
2024/01/16 09:38:20;;;;;;;6.33;4.57;;;6.40;96.40;;;;;;4881208;29;20428;-65
2024/01/16 09:40:47;;;;;;;6.43;4.27;;;6.30;96.80;;;;;;4897374;29;20646;-65
2024/01/16 09:43:14;;;;;;;11.80;4.90;;;6.20;97.10;;;;;;4881521;29;20461;-65
2024/01/16 09:45:40;;;;;;;6.40;4.67;;;6.00;97.80;;;;;;4897135;29;20472;-65
2024/01/16 09:48:07;;;;;;;7.00;5.40;;;6.00;98.50;;;;;;4897698;29;20454;-65
2024/01/16 09:50:34;;;;;;;7.37;4.90;;;6.00;98.20;;;;;;4897833;29;20833;-65
2024/01/16 09:52:59;;;;;;;6.40;4.40;;;5.90;98.80;;;;;;4897114;29;20406;-65
2024/01/16 09:55:25;;;;;;;7.30;4.40;;;5.90;98.20;;;;;;4897789;29;20427;-65
2024/01/16 09:57:55;;;;;;;5.83;4.10;;;5.90;98.50;;;;;;4897271;29;20519;-65
2024/01/16 10:00:24;;;;;;;6.03;4.13;;;5.90;98.50;;;;;;4897535;29;20562;-65
2024/01/16 10:02:50;;;;;;;4.70;4.20;;;5.80;97.80;;;;;;4895845;29;20958;-65
2024/01/16 10:05:16;;;;;;;5.83;4.07;;;5.80;97.80;;;;;;4897035;29;20462;-65
2024/01/16 10:07:45;;;;;;;4.50;4.10;;;5.70;98.00;;;;;;4896945;29;20956;-65
2024/01/16 10:10:12;;;;;;;10.90;4.40;;;5.60;97.80;;;;;;4897772;29;20187;-65
2024/01/16 10:12:39;;;;;;;4.30;3.87;;;5.70;99.00;;;;;;4897446;29;20549;-65
2024/01/16 10:15:08;;;;;;;5.20;3.80;;;5.70;98.10;;;;;;4897267;29;20427;-65
2024/01/16 10:17:42;;;;;;;6.20;4.20;;;5.70;98.20;;;;;;4897428;29;20420;-65
2024/01/16 10:20:13;;;;;;;7.30;6.20;;;5.70;98.00;;;;;;4897396;29;20384;-65
2024/01/16 10:22:40;;;;;;;5.17;4.20;;;5.60;97.80;;;;;;4897484;29;20438;-65
2024/01/16 10:25:07;;;;;;;6.23;5.07;;;5.60;97.70;;;;;;4897048;29;20460;-65
2024/01/16 10:27:33;;;;;;;7.60;5.03;;;5.60;98.00;;;;;;4897311;29;20775;-65
2024/01/16 10:29:59;;;;;;;5.73;5.10;;;5.60;98.30;;;;;;4896786;29;20478;-65
2024/01/16 10:32:29;;;;;;;5.80;5.20;;;5.60;98.10;;;;;;4894733;29;20580;-65
2024/01/16 10:35:21;;;;;;;6.20;5.67;;;5.70;98.00;;;;;;4865045;29;20325;-65
2024/01/16 10:37:48;;;;;;;8.00;5.23;;;5.70;97.20;;;;;;4890777;29;20450;-65
2024/01/16 10:40:21;;;;;;;5.33;4.83;;;5.80;97.00;;;;;;4897233;29;20409;-65
2024/01/16 10:42:59;;;;;;;5.07;4.63;;;5.70;97.00;;;;;;4879568;29;20474;-65
2024/01/16 10:45:26;;;;;;;6.03;4.20;;;5.80;97.50;;;;;;4879726;29;20792;-65
2024/01/16 10:48:18;;;;;;;7.47;4.23;;;5.90;97.40;;;;;;4896895;29;20423;-65
2024/01/16 10:50:46;;;;;;;5.67;4.33;;;6.10;97.10;;;;;;4893049;29;20496;-67
2024/01/16 10:53:15;;;;;;;7.00;4.20;;;6.10;96.40;;;;;;4896031;29;20433;-65
2024/01/16 10:55:53;;;;;;;7.77;4.50;;;6.20;96.30;;;;;;4897069;29;20862;-65
2024/01/16 10:58:22;;;;;;;8.67;3.53;;;6.30;96.10;;;;;;4897005;29;20476;-65
2024/01/16 11:00:51;;;;;;;6.73;4.80;;;6.30;95.90;;;;;;4896520;29;20457;-65
2024/01/16 11:03:24;;;;;;;4.80;4.27;;;6.30;95.50;;;;;;4897060;29;20430;-66
2024/01/16 11:05:50;;;;;;;6.70;4.30;;;6.50;95.50;;;;;;4896562;29;20981;-65
2024/01/16 11:08:17;;;;;;;5.67;4.60;;;6.60;95.50;;;;;;4901346;29;20407;-66
2024/01/16 11:10:43;;;;;;;7.87;4.63;;;6.70;95.10;;;;;;4908545;29;20436;-65
2024/01/16 11:13:11;;;;;;;5.07;4.03;;;6.90;95.00;;;;;;4908642;29;20740;-66
2024/01/16 11:15:38;;;;;;;4.97;4.57;;;7.10;94.10;;;;;;4911134;29;20467;-66
2024/01/16 11:18:05;;;;;;;5.27;4.80;;;7.20;93.40;;;;;;4910944;29;20749;-66
2024/01/16 11:20:33;;;;;;;6.00;4.50;;;7.50;93.10;;;;;;4910000;29;20424;-66
2024/01/16 11:23:01;;;;;;;5.37;4.70;;;7.80;92.70;;;;;;4909945;29;20769;-65
2024/01/16 11:25:33;;;;;;;3.77;3.50;;;7.90;92.00;;;;;;4908831;29;20523;-65
2024/01/16 11:28:19;;;;;;;5.87;5.03;;;8.10;91.50;;;;;;4896441;29;20433;-65
2024/01/16 11:30:45;;;;;;;9.83;5.03;;;8.30;91.30;;;;;;4918208;29;20841;-66
2024/01/16 11:33:33;;;;;;;4.60;4.20;;;8.60;90.10;;;;;;4909794;29;20439;-65
2024/01/16 11:35:59;;;;;;;6.00;4.83;;;8.80;89.90;;;;;;4906860;29;20557;-65
2024/01/16 11:38:29;;;;;;;7.83;4.60;;;9.00;88.50;;;;;;4908052;29;20423;-65
2024/01/16 11:40:55;;;;;;;5.63;5.00;;;9.10;88.80;;;;;;4907086;29;20821;-66
2024/01/16 11:43:33;;;;;;;7.50;4.67;;;9.20;85.60;;;;;;4908871;29;20437;-65
2024/01/16 11:46:09;;;;;;;9.77;5.40;;;9.40;85.20;;;;;;4901102;29;20458;-66
2024/01/16 11:48:35;;;;;;;5.53;5.03;;;9.50;83.10;;;;;;4918669;29;20445;-65
2024/01/16 11:51:24;;;;;;;4.67;4.27;;;9.50;81.80;;;;;;4918020;29;20459;-65
2024/01/16 11:53:50;;;;;;;8.17;7.40;;;9.40;81.40;;;;;;4911015;29;20491;-66
2024/01/16 11:56:19;;;;;;;6.00;5.60;;;9.20;81.60;;;;;;4898609;29;20430;-65
2024/01/16 11:59:19;;;;;;;7.40;4.77;;;9.00;83.00;;;;;;4899958;29;20412;-65
2024/01/16 12:01:46;;;;;;;6.90;6.40;;;8.80;82.70;;;;;;4882665;29;20882;-65
2024/01/16 12:04:14;;;;;;;7.00;5.03;;;8.60;83.70;;;;;;4899211;29;20736;-65
2024/01/16 12:06:40;;;;;;;6.13;5.00;;;8.40;84.60;;;;;;4899539;29;20506;-65
2024/01/16 12:09:17;;;;;;;9.20;8.00;;;8.20;85.60;;;;;;4898892;29;20741;-65
2024/01/16 12:11:45;;;;;;;5.30;4.87;;;8.10;86.20;;;;;;4899477;29;20183;-65
2024/01/16 12:14:13;;;;;;;5.27;4.87;;;7.90;87.20;;;;;;4898455;29;20908;-65
2024/01/16 12:16:39;;;;;;;8.10;5.10;;;7.80;87.20;;;;;;4901544;29;20419;-65
2024/01/16 12:19:06;;;;;;;7.13;6.43;;;7.70;86.50;;;;;;4901201;29;20924;-65
2024/01/16 12:21:43;;;;;;;7.13;6.43;;;7.70;86.50;;;;;;4882502;29;20488;-65
2024/01/16 12:24:10;;;;;;;7.13;6.47;;;7.70;87.40;;;;;;4898319;29;20966;-65
2024/01/16 12:26:37;;;;;;;7.23;5.77;;;7.60;88.00;;;;;;4899175;29;20415;-65
2024/01/16 12:29:03;;;;;;;6.10;5.40;;;7.60;87.70;;;;;;4898528;29;20414;-65
2024/01/16 12:31:29;;;;;;;5.27;4.50;;;7.70;90.00;;;;;;4899207;29;20436;-65
2024/01/16 12:34:08;;;;;;;7.40;6.30;;;7.70;89.00;;;;;;4898237;29;20522;-65
2024/01/16 12:36:40;;;;;;;5.50;5.00;;;7.80;87.00;;;;;;4899000;29;20474;-65
2024/01/16 12:39:06;;;;;;;6.37;4.97;;;7.90;88.30;;;;;;4881297;29;20419;-65
2024/01/16 12:41:41;;;;;;;8.33;5.63;;;8.10;86.00;;;;;;4898570;29;20923;-65
2024/01/16 12:44:07;;;;;;;7.70;4.60;;;8.10;85.40;;;;;;4881481;29;20414;-65
2024/01/16 12:46:32;;;;;;;4.90;4.50;;;8.10;87.20;;;;;;4899768;29;20408;-65